Time;durP1;ratioP1;P1;durP2;ratioP2;P2;SDS_P1;SDS_P2;PMS_P1;PMS_P2;Temp;Humidity;BMP_temperature;BMP_pressure;BME280_temperature;BME280_humidity;BME280_pressure;Samples;Min_cycle;Max_cycle;Signal;HPM_P1;HPM_P2
2024/04/17 00:01:46;;;;;;;1.67;0.70;;;8.90;64.90;;;4.03;100.00;94801.09;5334562;26;20012;-48
2024/04/17 00:04:12;;;;;;;0.65;0.50;;;8.90;65.70;;;4.10;100.00;94801.72;5330535;26;20022;-48
2024/04/17 00:06:37;;;;;;;0.63;0.50;;;8.90;64.90;;;4.07;100.00;94795.09;5333075;26;20008;-48
2024/04/17 00:09:04;;;;;;;1.08;0.43;;;8.90;65.00;;;4.06;100.00;94795.34;5328616;26;20004;-47
2024/04/17 00:11:29;;;;;;;1.20;0.50;;;8.90;65.00;;;4.04;100.00;94795.59;5331157;26;20040;-46
2024/04/17 00:13:55;;;;;;;1.25;0.60;;;8.90;65.80;;;4.09;100.00;94797.50;5335543;26;20429;-46
2024/04/17 00:16:21;;;;;;;0.98;0.70;;;8.90;65.00;;;4.12;100.00;94795.16;5331269;26;20015;-46
2024/04/17 00:18:47;;;;;;;1.08;0.77;;;8.90;65.00;;;4.16;100.00;94800.75;5333667;26;20004;-49
2024/04/17 00:21:13;;;;;;;1.15;0.60;;;8.90;64.90;;;4.06;100.00;94792.72;5332326;26;20585;-47
2024/04/17 00:23:39;;;;;;;1.30;0.80;;;8.90;64.90;;;4.07;100.00;94795.09;5332041;26;20023;-48
2024/04/17 00:26:05;;;;;;;1.00;0.65;;;8.90;65.00;;;3.98;100.00;94799.19;5332181;26;20675;-51
2024/04/17 00:28:31;;;;;;;0.52;0.50;;;8.90;65.00;;;3.97;100.00;94792.31;5336216;26;20050;-52
2024/04/17 00:30:56;;;;;;;1.10;0.73;;;8.80;65.00;;;4.04;100.00;94786.88;5333270;26;20008;-47
2024/04/17 00:33:23;;;;;;;0.85;0.70;;;8.80;64.90;;;3.93;100.00;94778.03;5335270;26;20012;-48
2024/04/17 00:35:49;;;;;;;0.68;0.57;;;8.80;65.00;;;3.92;100.00;94779.09;5329119;26;20086;-48
2024/04/17 00:38:15;;;;;;;1.27;0.68;;;8.80;65.10;;;3.87;100.00;94773.72;5334850;26;20019;-49
2024/04/17 00:40:41;;;;;;;1.20;0.63;;;8.80;65.10;;;3.91;100.00;94778.25;5336529;26;20427;-48
2024/04/17 00:43:07;;;;;;;0.70;0.60;;;8.80;65.00;;;3.98;100.00;94785.19;5331399;26;20463;-48
2024/04/17 00:45:46;;;;;;;0.77;0.70;;;8.80;65.00;;;3.99;100.00;94779.69;5332841;26;20008;-47
2024/04/17 00:48:15;;;;;;;0.93;0.65;;;8.80;65.10;;;3.94;100.00;94780.41;5330370;26;20346;-45
2024/04/17 00:50:47;;;;;;;0.63;0.63;;;8.80;65.00;;;3.98;100.00;94778.13;5331935;26;20004;-47
2024/04/17 00:53:22;;;;;;;1.63;0.60;;;8.80;65.00;;;3.93;100.00;94778.03;5349167;26;20354;-52
2024/04/17 00:55:50;;;;;;;0.60;0.60;;;8.80;65.00;;;3.98;100.00;94766.75;5301101;26;20372;-45
2024/04/17 00:58:18;;;;;;;1.58;0.60;;;8.80;64.90;;;4.01;100.00;94763.63;5340899;26;20059;-48
2024/04/17 01:00:44;;;;;;;2.05;0.90;;;8.80;65.00;;;3.92;100.00;94771.97;5316439;26;20456;-49
2024/04/17 01:03:10;;;;;;;0.70;0.60;;;8.80;65.00;;;4.00;100.00;94770.75;5333533;26;20008;-46
2024/04/17 01:05:37;;;;;;;1.00;0.68;;;8.80;65.00;;;4.01;100.00;94761.00;5336280;26;20046;-48
2024/04/17 01:08:06;;;;;;;0.95;0.70;;;8.80;65.10;;;3.97;100.00;94765.16;5331686;26;20015;-48
2024/04/17 01:10:33;;;;;;;0.82;0.82;;;8.80;65.10;;;3.99;100.00;94763.09;5337058;26;20000;-48
2024/04/17 01:13:00;;;;;;;1.52;0.80;;;8.80;65.20;;;3.99;100.00;94755.97;5335943;26;20016;-46
2024/04/17 01:15:26;;;;;;;1.08;0.98;;;8.80;65.20;;;4.04;100.00;94749.97;5333553;26;20022;-47
2024/04/17 01:17:55;;;;;;;1.23;0.90;;;8.80;65.20;;;4.07;100.00;94752.91;5337091;26;20005;-49
2024/04/17 01:20:21;;;;;;;1.20;1.10;;;8.80;65.30;;;4.05;100.00;94741.84;5330593;26;20005;-46
2024/04/17 01:22:47;;;;;;;1.05;0.95;;;8.80;65.20;;;4.04;100.00;94739.44;5337350;26;20082;-48
2024/04/17 01:25:13;;;;;;;1.98;1.20;;;8.90;65.30;;;4.05;100.00;94741.03;5335485;26;20012;-48
2024/04/17 01:27:40;;;;;;;2.05;0.80;;;8.90;65.30;;;3.99;100.00;94739.38;5335330;26;20023;-49
2024/04/17 01:30:08;;;;;;;1.15;0.82;;;8.90;65.40;;;4.01;100.00;94735.47;5336753;26;20023;-49
2024/04/17 01:32:34;;;;;;;1.67;0.90;;;8.90;65.40;;;4.02;100.00;94734.41;5326199;26;20078;-48
2024/04/17 01:35:00;;;;;;;1.80;1.25;;;8.80;65.50;;;4.00;100.00;94725.94;5336346;26;20146;-48
2024/04/17 01:37:25;;;;;;;4.13;1.10;;;8.80;65.50;;;3.95;100.00;94728.53;5340074;26;20009;-45
2024/04/17 01:39:51;;;;;;;2.13;1.02;;;8.80;65.60;;;3.94;100.00;94729.56;5336742;26;20008;-51
2024/04/17 01:42:17;;;;;;;1.58;1.17;;;8.80;65.70;;;4.01;100.00;94730.19;5332364;26;20031;-45
2024/04/17 01:44:43;;;;;;;1.50;1.17;;;8.80;65.60;;;3.96;100.00;94732.75;5338607;26;20054;-49
2024/04/17 01:47:08;;;;;;;2.08;1.00;;;8.80;65.70;;;4.00;100.00;94730.44;5336459;26;20019;-48
2024/04/17 01:49:34;;;;;;;3.25;1.20;;;8.80;65.70;;;4.00;100.00;94736.50;5337862;26;20544;-47
2024/04/17 01:52:00;;;;;;;3.90;1.00;;;8.80;65.70;;;4.03;100.00;94727.31;5336364;26;20031;-50
2024/04/17 01:54:26;;;;;;;3.20;1.20;;;8.80;65.90;;;4.00;100.00;94728.59;5335666;26;20142;-47
2024/04/17 01:56:52;;;;;;;1.85;1.20;;;8.80;66.00;;;4.05;100.00;94722.59;5334724;26;20379;-47
2024/04/17 01:59:18;;;;;;;2.55;1.10;;;8.80;66.00;;;3.99;100.00;94726.22;5333695;26;20020;-46
2024/04/17 02:01:45;;;;;;;2.92;1.10;;;8.80;66.10;;;4.02;100.00;94725.72;5330248;26;20040;-48
2024/04/17 02:04:11;;;;;;;1.20;1.10;;;8.90;66.20;;;3.99;100.00;94732.28;5335887;26;20027;-48
2024/04/17 02:06:37;;;;;;;2.17;1.35;;;8.80;66.00;;;4.01;100.00;94722.28;5335929;26;20012;-49
2024/04/17 02:09:03;;;;;;;1.42;1.05;;;8.80;66.00;;;4.02;100.00;94720.44;5338818;26;20008;-48
2024/04/17 02:11:29;;;;;;;4.20;1.30;;;8.80;66.00;;;4.02;100.00;94723.09;5314960;26;20086;-47
2024/04/17 02:13:54;;;;;;;1.45;1.27;;;8.90;66.10;;;4.05;100.00;94726.03;5335300;26;20019;-46
2024/04/17 02:16:21;;;;;;;1.83;1.30;;;8.80;66.10;;;4.10;100.00;94731.34;5334822;26;20008;-49
2024/04/17 02:18:47;;;;;;;2.15;1.02;;;8.90;66.20;;;4.08;100.00;94727.38;5334688;26;20023;-46
2024/04/17 02:21:12;;;;;;;1.92;1.30;;;8.90;66.20;;;4.04;100.00;94724.44;5336138;26;20020;-46
2024/04/17 02:23:38;;;;;;;1.73;1.27;;;8.90;66.20;;;4.02;100.00;94726.50;5335912;26;20024;-50
2024/04/17 02:26:04;;;;;;;3.90;1.20;;;8.90;66.30;;;4.04;100.00;94729.72;5331062;26;20804;-52
2024/04/17 02:28:30;;;;;;;1.40;1.30;;;8.90;66.30;;;4.04;100.00;94721.81;5335712;26;20019;-47
2024/04/17 02:30:56;;;;;;;1.65;1.33;;;8.90;66.20;;;4.06;100.00;94721.53;5333739;26;20074;-46
2024/04/17 02:33:21;;;;;;;1.60;1.48;;;8.90;66.20;;;4.03;100.00;94728.09;5331715;26;20012;-46
2024/04/17 02:35:47;;;;;;;2.05;1.25;;;8.90;66.30;;;4.05;100.00;94725.22;5335840;26;20025;-48
2024/04/17 02:38:13;;;;;;;2.67;1.27;;;8.90;66.20;;;4.13;100.00;94722.94;5334311;26;20019;-48
2024/04/17 02:40:39;;;;;;;3.33;1.50;;;8.90;66.20;;;4.08;100.00;94724.75;5326878;26;20012;-46
2024/04/17 02:43:05;;;;;;;3.38;1.23;;;8.90;66.20;;;4.12;100.00;94731.91;5334564;26;20487;-47
2024/04/17 02:45:31;;;;;;;3.85;1.40;;;8.90;66.20;;;4.08;100.00;94728.19;5335016;26;20012;-46
2024/04/17 02:47:58;;;;;;;2.20;1.50;;;8.90;66.20;;;4.10;100.00;94735.81;5335593;26;20347;-49
2024/04/17 02:50:24;;;;;;;1.95;1.30;;;8.90;66.20;;;4.04;100.00;94724.44;5333712;26;20085;-47
2024/04/17 02:52:49;;;;;;;1.75;1.38;;;8.90;66.20;;;4.04;100.00;94727.06;5335728;26;20349;-46
2024/04/17 02:55:15;;;;;;;1.90;1.45;;;8.90;66.20;;;4.03;100.00;94737.84;5333021;26;20012;-47
2024/04/17 02:57:41;;;;;;;2.13;1.40;;;8.90;66.20;;;4.04;100.00;94736.78;5334587;26;20020;-45
2024/04/17 03:00:08;;;;;;;2.33;1.27;;;8.90;66.10;;;4.08;100.00;94735.28;5334147;26;20012;-45
2024/04/17 03:02:34;;;;;;;2.95;1.45;;;8.90;66.10;;;4.05;100.00;94730.50;5329871;26;20012;-50
2024/04/17 03:04:59;;;;;;;2.17;1.70;;;8.90;66.00;;;4.08;100.00;94736.09;5335169;26;20032;-47
2024/04/17 03:07:25;;;;;;;2.10;1.42;;;8.90;66.00;;;4.02;100.00;94733.63;5332684;26;20586;-45
2024/04/17 03:09:51;;;;;;;2.28;1.50;;;8.90;66.00;;;4.01;100.00;94732.84;5335333;26;20004;-44
2024/04/17 03:12:18;;;;;;;2.90;1.50;;;8.90;66.70;;;4.07;100.00;94738.94;5335075;26;20012;-44
2024/04/17 03:14:44;;;;;;;2.42;1.60;;;8.90;65.80;;;4.04;100.00;94737.63;5329309;26;20020;-52
2024/04/17 03:17:10;;;;;;;2.00;1.38;;;8.90;65.80;;;4.06;100.00;94732.09;5334987;26;20376;-51
2024/04/17 03:19:36;;;;;;;2.80;1.50;;;8.90;65.80;;;4.05;100.00;94727.88;5339366;26;20004;-43
2024/04/17 03:22:02;;;;;;;1.85;1.58;;;8.90;65.70;;;3.96;100.00;94739.88;5334832;26;20885;-46
2024/04/17 03:24:27;;;;;;;2.42;1.50;;;8.90;65.70;;;3.97;100.00;94742.25;5334357;26;20012;-50
2024/04/17 03:26:54;;;;;;;3.55;1.38;;;8.90;65.70;;;4.05;100.00;94738.41;5334001;26;20093;-45
2024/04/17 03:29:20;;;;;;;2.38;1.50;;;8.90;65.60;;;4.02;100.00;94734.41;5330353;26;20068;-47
2024/04/17 03:31:46;;;;;;;1.20;1.10;;;8.90;65.70;;;4.04;100.00;94745.53;5327202;26;20012;-49
2024/04/17 03:34:12;;;;;;;2.72;1.10;;;8.90;66.40;;;4.05;100.00;94743.69;5324142;26;20058;-50
2024/04/17 03:36:37;;;;;;;6.95;1.30;;;8.90;65.60;;;4.00;100.00;94746.25;5327649;26;20015;-48
2024/04/17 03:39:03;;;;;;;2.30;1.48;;;8.90;65.50;;;4.02;100.00;94746.81;5327198;26;20021;-45
2024/04/17 03:41:29;;;;;;;3.80;1.15;;;8.90;65.50;;;3.98;100.00;94748.31;5328013;26;20032;-45
2024/04/17 03:43:55;;;;;;;1.70;1.30;;;8.90;65.50;;;3.92;100.00;94750.91;5329615;26;20098;-43
2024/04/17 03:46:21;;;;;;;1.30;1.00;;;8.90;65.50;;;3.87;100.00;94747.38;5334414;26;20015;-49
2024/04/17 03:48:47;;;;;;;1.75;1.20;;;8.80;65.50;;;3.87;100.00;94748.19;5306236;26;20013;-45
2024/04/17 03:51:13;;;;;;;2.17;1.25;;;8.80;65.50;;;3.96;100.00;94747.78;5332760;26;20394;-44
2024/04/17 03:53:39;;;;;;;1.15;1.05;;;8.80;65.50;;;4.01;100.00;94761.00;5324316;26;20012;-45
2024/04/17 03:56:06;;;;;;;1.30;1.10;;;8.80;65.50;;;4.05;100.00;94752.38;5329674;26;20020;-47
2024/04/17 03:58:31;;;;;;;1.50;1.30;;;8.80;65.50;;;4.06;100.00;94755.81;5333686;26;20471;-44
2024/04/17 04:00:57;;;;;;;1.70;1.20;;;8.80;65.50;;;4.02;100.00;94752.06;5332184;26;20024;-44
2024/04/17 04:03:23;;;;;;;2.78;1.23;;;8.80;65.40;;;4.00;100.00;94754.13;5335802;26;20004;-45
2024/04/17 04:05:49;;;;;;;1.20;1.10;;;8.80;65.40;;;3.98;100.00;94754.41;5335086;26;20005;-48
2024/04/17 04:08:14;;;;;;;1.73;1.08;;;8.80;65.30;;;3.99;100.00;94758.63;5326631;26;20001;-46
2024/04/17 04:10:40;;;;;;;1.38;1.15;;;8.80;65.30;;;3.98;100.00;94753.56;5334102;26;20008;-50
2024/04/17 04:13:06;;;;;;;1.40;1.30;;;8.80;65.30;;;4.05;100.00;94748.94;5327634;26;20009;-47
2024/04/17 04:15:32;;;;;;;1.50;1.10;;;8.80;65.30;;;4.03;100.00;94759.72;5331259;26;20008;-43
2024/04/17 04:17:58;;;;;;;1.58;1.20;;;8.90;65.30;;;3.91;100.00;94751.91;5334824;26;20018;-45
2024/04/17 04:20:24;;;;;;;2.42;1.20;;;8.90;65.30;;;3.96;100.00;94753.84;5325399;26;20527;-44
2024/04/17 04:22:49;;;;;;;1.80;1.27;;;8.90;65.30;;;3.93;100.00;94757.75;5332695;26;20138;-43
2024/04/17 04:25:15;;;;;;;1.60;1.40;;;8.80;65.20;;;3.95;100.00;94768.06;5333455;26;20036;-45
2024/04/17 04:27:42;;;;;;;1.17;1.08;;;8.80;65.30;;;3.92;100.00;94769.34;5331220;26;20012;-46
2024/04/17 04:30:08;;;;;;;2.40;1.75;;;8.80;65.20;;;4.02;100.00;94765.25;5334855;26;20109;-44
2024/04/17 04:32:34;;;;;;;2.92;1.40;;;8.80;65.20;;;4.05;100.00;94764.75;5335722;26;20031;-45
2024/04/17 04:35:00;;;;;;;1.35;1.25;;;8.80;65.20;;;3.96;100.00;94771.50;5337102;26;20032;-45
2024/04/17 04:37:25;;;;;;;1.67;1.20;;;8.90;65.40;;;3.97;100.00;94778.34;5335489;26;20031;-52
2024/04/17 04:39:51;;;;;;;3.83;1.55;;;8.80;65.20;;;4.01;100.00;94776.81;5337916;26;20009;-47
2024/04/17 04:42:17;;;;;;;1.48;1.27;;;8.80;65.20;;;3.99;100.00;94778.91;5339437;26;20093;-47
2024/04/17 04:44:45;;;;;;;4.03;1.80;;;8.90;65.30;;;3.92;100.00;94777.25;5339041;26;20494;-46
2024/04/17 04:47:11;;;;;;;2.13;1.67;;;8.90;65.30;;;3.92;100.00;94771.97;5337355;26;20023;-48
2024/04/17 04:49:37;;;;;;;4.78;1.65;;;8.80;65.20;;;3.89;100.00;94775.09;5339347;26;20016;-45
2024/04/17 04:52:03;;;;;;;1.80;1.50;;;8.80;65.20;;;3.90;100.00;94771.41;5337376;26;20009;-45
2024/04/17 04:54:29;;;;;;;2.50;1.85;;;8.80;65.20;;;3.85;100.00;94763.41;5337045;26;20016;-52
2024/04/17 04:56:54;;;;;;;2.70;1.52;;;8.80;65.20;;;3.88;100.00;94768.22;5339604;26;20046;-44
2024/04/17 04:59:21;;;;;;;1.92;1.23;;;8.80;65.20;;;3.90;100.00;94768.78;5336724;26;20015;-44
2024/04/17 05:01:47;;;;;;;2.15;1.50;;;8.80;65.20;;;3.98;100.00;94772.03;5339310;26;20036;-52
2024/04/17 05:04:13;;;;;;;1.45;1.10;;;8.80;65.20;;;3.93;100.00;94767.50;5346586;26;20016;-51
2024/04/17 05:06:40;;;;;;;2.67;1.70;;;8.80;65.30;;;3.96;100.00;94763.59;5335669;26;20059;-51
2024/04/17 05:09:06;;;;;;;2.28;1.58;;;8.80;65.30;;;3.95;100.00;94768.06;5341602;26;20015;-52
2024/04/17 05:11:32;;;;;;;1.20;1.08;;;8.80;65.30;;;4.00;100.00;94762.84;5338668;26;20008;-46
2024/04/17 05:13:58;;;;;;;1.38;1.20;;;8.80;65.30;;;3.95;100.00;94765.44;5336112;26;20351;-49
2024/04/17 05:16:24;;;;;;;2.13;1.67;;;8.80;65.40;;;4.00;100.00;94768.13;5337053;26;20004;-49
2024/04/17 05:18:51;;;;;;;1.55;1.20;;;8.80;65.40;;;3.97;100.00;94770.44;5335187;26;20131;-50
2024/04/17 05:21:17;;;;;;;1.63;1.00;;;8.70;65.60;;;3.88;100.00;94770.84;5336959;26;20463;-51
2024/04/17 05:23:43;;;;;;;2.55;1.30;;;8.70;65.70;;;3.83;100.00;94770.78;5338054;26;20008;-52
2024/04/17 05:26:09;;;;;;;2.95;1.30;;;8.70;65.80;;;3.81;100.00;94772.84;5303463;26;20013;-50
2024/04/17 05:28:34;;;;;;;2.83;1.40;;;8.70;65.90;;;3.77;100.00;94773.59;5336406;26;20008;-49
2024/04/17 05:31:00;;;;;;;1.83;1.48;;;8.60;66.00;;;3.64;100.00;94780.78;5333335;26;20009;-49
2024/04/17 05:33:26;;;;;;;3.85;1.52;;;8.60;66.20;;;3.67;100.00;94777.66;5312465;26;20016;-47
2024/04/17 05:35:52;;;;;;;2.47;1.45;;;8.50;66.30;;;3.72;100.00;94785.63;5337223;26;20004;-48
2024/04/17 05:38:18;;;;;;;2.17;1.30;;;8.50;66.40;;;3.66;100.00;94783.16;5338722;26;20085;-49
2024/04/17 05:40:48;;;;;;;1.63;1.50;;;8.50;66.70;;;3.72;100.00;94783.00;5313412;26;20089;-48
2024/04/17 05:43:17;;;;;;;2.72;1.60;;;8.40;66.90;;;3.79;100.00;94780.22;5333502;26;20016;-46
2024/04/17 05:45:46;;;;;;;3.45;1.52;;;8.40;66.90;;;3.72;100.00;94787.47;5343422;26;20463;-50
2024/04/17 05:48:13;;;;;;;1.90;1.70;;;8.50;67.10;;;3.72;100.00;94783.00;5336805;26;20371;-50
2024/04/17 05:50:43;;;;;;;1.50;1.40;;;8.50;67.10;;;3.82;100.00;94782.34;5331250;26;20019;-50
2024/04/17 05:53:09;;;;;;;2.25;1.65;;;8.50;67.10;;;3.88;100.00;94783.22;5336431;26;20058;-50
2024/04/17 05:55:38;;;;;;;5.75;2.10;;;8.60;67.20;;;3.89;100.00;94780.34;5330739;26;20004;-50
2024/04/17 05:58:07;;;;;;;3.47;1.80;;;8.60;67.20;;;3.92;100.00;94781.72;5331567;26;20019;-51
2024/04/17 06:00:35;;;;;;;4.57;2.00;;;8.60;67.30;;;3.96;100.00;94784.66;5333075;26;20016;-47
2024/04/17 06:03:01;;;;;;;4.15;2.03;;;8.70;67.40;;;3.92;100.00;94790.41;5326176;26;20009;-52
2024/04/17 06:05:27;;;;;;;3.72;1.80;;;8.70;67.30;;;3.89;100.00;94790.91;5329694;26;20363;-49
2024/04/17 06:07:53;;;;;;;2.08;1.70;;;8.70;67.30;;;3.81;100.00;94790.50;5332478;26;20020;-48
2024/04/17 06:10:19;;;;;;;2.78;2.10;;;8.80;67.50;;;3.81;100.00;94783.41;5331052;26;20358;-50
2024/04/17 06:12:45;;;;;;;4.18;1.98;;;8.70;67.40;;;3.87;100.00;94789.53;5333240;26;20036;-49
2024/04/17 06:15:11;;;;;;;2.55;1.77;;;8.80;68.20;;;3.85;100.00;94794.25;5329393;26;20740;-47
2024/04/17 06:17:36;;;;;;;6.15;1.80;;;8.80;67.50;;;3.79;100.00;94785.50;5332242;26;20116;-47
2024/04/17 06:20:03;;;;;;;2.50;1.27;;;8.80;67.40;;;3.66;100.00;94791.84;5323710;26;20009;-49
2024/04/17 06:22:29;;;;;;;3.33;1.20;;;8.70;67.40;;;3.61;100.00;94791.00;5336088;26;20012;-49
2024/04/17 06:24:55;;;;;;;2.03;1.00;;;8.70;67.40;;;3.56;100.00;94793.53;5297329;26;20380;-49
2024/04/17 06:27:21;;;;;;;3.05;1.35;;;8.70;67.40;;;3.54;100.00;94798.25;5333843;26;20009;-48
2024/04/17 06:29:47;;;;;;;7.18;1.30;;;8.70;67.40;;;3.57;100.00;94803.81;5328920;26;20016;-50
2024/04/17 06:32:13;;;;;;;1.73;1.00;;;8.70;67.30;;;3.63;100.00;94804.72;5332729;26;20599;-50
2024/04/17 06:34:39;;;;;;;0.88;0.82;;;8.70;67.30;;;3.68;100.00;94810.88;5335217;26;20060;-52
2024/04/17 06:37:04;;;;;;;1.83;1.15;;;8.80;67.40;;;3.81;100.00;94809.75;5327522;26;20023;-52
2024/04/17 06:39:30;;;;;;;7.80;1.17;;;8.80;67.40;;;3.81;100.00;94816.84;5331313;26;21930;-53
2024/04/17 06:41:57;;;;;;;2.17;0.90;;;8.80;67.50;;;3.77;100.00;94808.63;5329271;26;20015;-50
2024/04/17 06:44:23;;;;;;;1.88;1.00;;;8.90;67.40;;;3.80;100.00;94802.09;5329924;26;20024;-49
2024/04/17 06:46:49;;;;;;;4.47;1.23;;;8.90;67.40;;;3.79;100.00;94808.38;5334744;26;20027;-51
2024/04/17 06:49:16;;;;;;;1.13;0.90;;;8.90;67.40;;;3.79;100.00;94809.19;5329386;26;20008;-50
2024/04/17 06:51:41;;;;;;;1.30;1.00;;;8.90;67.40;;;3.82;100.00;94807.91;5334985;26;20016;-50
2024/04/17 06:54:07;;;;;;;2.88;1.08;;;8.90;67.30;;;3.91;100.00;94807.25;5328903;26;20019;-50
2024/04/17 06:56:33;;;;;;;2.58;0.90;;;9.00;67.30;;;3.93;100.00;94815.72;5327809;26;20005;-52
2024/04/17 06:58:59;;;;;;;1.88;1.00;;;9.00;67.30;;;4.03;100.00;94814.28;5335633;26;20119;-47
2024/04/17 07:01:24;;;;;;;1.35;0.93;;;9.10;67.40;;;4.04;100.00;94816.69;5334291;26;20004;-50
2024/04/17 07:03:50;;;;;;;0.75;0.75;;;9.10;67.30;;;4.03;100.00;94816.91;5336190;26;20411;-50
2024/04/17 07:06:16;;;;;;;1.00;0.80;;;9.10;67.20;;;4.06;100.00;94811.94;5335528;26;20008;-49
2024/04/17 07:08:42;;;;;;;2.33;0.90;;;9.10;67.20;;;4.06;100.00;94811.94;5334257;26;20463;-51
2024/04/17 07:11:08;;;;;;;2.72;0.70;;;9.10;67.20;;;4.05;100.00;94806.94;5336330;26;20012;-51
2024/04/17 07:13:34;;;;;;;3.25;1.10;;;9.20;67.20;;;4.10;100.00;94810.41;5335072;26;21541;-50
2024/04/17 07:16:00;;;;;;;8.45;0.98;;;9.20;67.20;;;4.08;100.00;94817.78;5336308;26;20519;-49
2024/04/17 07:18:27;;;;;;;5.50;0.90;;;9.20;67.10;;;4.09;100.00;94808.03;5335448;26;20084;-49
2024/04/17 07:20:53;;;;;;;2.88;1.13;;;9.30;67.20;;;4.17;100.00;94805.00;5334398;26;20020;-48
2024/04/17 07:23:19;;;;;;;1.10;0.80;;;9.30;67.10;;;4.13;100.00;94807.28;5330386;26;20012;-49
2024/04/17 07:25:45;;;;;;;2.20;0.90;;;9.40;67.20;;;3.98;100.00;94804.47;5331873;26;20036;-46
2024/04/17 07:28:10;;;;;;;2.35;0.90;;;9.40;67.00;;;4.17;100.00;94802.38;5309619;26;20019;-52
2024/04/17 07:30:41;;;;;;;2.65;0.90;;;9.40;66.90;;;4.24;100.00;94813.53;5339873;26;20047;-50
2024/04/17 07:33:07;;;;;;;2.40;1.20;;;9.40;67.10;;;4.31;100.00;94805.44;5338446;26;21383;-50
2024/04/17 07:35:33;;;;;;;3.25;0.80;;;9.50;67.00;;;4.24;100.00;94810.09;5338811;26;20495;-50
2024/04/17 07:37:59;;;;;;;1.88;0.80;;;9.60;66.90;;;4.31;100.00;94811.50;5334093;26;20009;-51
2024/04/17 07:40:25;;;;;;;2.35;0.77;;;9.60;67.60;;;4.45;100.00;94817.22;5325037;26;20001;-52
2024/04/17 07:42:51;;;;;;;1.10;0.85;;;9.70;66.90;;;4.45;100.00;94808.50;5338103;26;20605;-49
2024/04/17 07:45:17;;;;;;;1.40;0.73;;;9.70;66.80;;;4.47;100.00;94811.69;5345929;26;20621;-53
2024/04/17 07:47:43;;;;;;;1.40;0.95;;;9.70;66.70;;;4.51;100.00;94812.78;5338696;26;20027;-50
2024/04/17 07:50:08;;;;;;;0.68;0.68;;;9.80;66.70;;;4.57;100.00;94815.25;5339865;26;20355;-50
2024/04/17 07:52:34;;;;;;;0.80;0.70;;;9.90;66.50;;;4.44;100.00;94809.56;5317741;26;20559;-50
2024/04/17 07:55:00;;;;;;;1.38;0.80;;;10.00;66.40;;;4.39;100.00;94816.38;5335480;26;20404;-54
2024/04/17 07:57:26;;;;;;;1.05;0.95;;;10.10;66.10;;;4.50;100.00;94812.00;5338022;26;20004;-52
2024/04/17 07:59:53;;;;;;;1.02;0.90;;;10.20;65.80;;;4.71;100.00;94809.63;5331650;26;20348;-55
2024/04/17 08:02:19;;;;;;;0.80;0.80;;;10.30;65.80;;;4.81;100.00;94812.38;5337087;26;20008;-55
2024/04/17 08:04:45;;;;;;;0.85;0.85;;;10.40;65.90;;;4.73;100.00;94818.91;5337931;26;20082;-51
2024/04/17 08:07:12;;;;;;;0.70;0.70;;;10.30;65.80;;;4.76;100.00;94813.09;5337421;26;20459;-54
2024/04/17 08:09:39;;;;;;;1.05;0.90;;;10.30;65.80;;;4.60;100.00;94817.41;5337747;26;20082;-55
2024/04/17 08:12:05;;;;;;;0.65;0.65;;;10.20;65.60;;;4.59;100.00;94821.09;5338341;26;20085;-54
2024/04/17 08:14:31;;;;;;;0.70;0.70;;;10.10;65.50;;;4.50;100.00;94829.66;5336889;26;20459;-52
2024/04/17 08:16:57;;;;;;;0.98;0.70;;;9.90;65.50;;;4.41;100.00;94830.09;5337234;26;20028;-54
2024/04/17 08:19:23;;;;;;;0.77;0.73;;;9.80;65.70;;;4.19;100.00;94837.16;5333240;26;20008;-50
2024/04/17 08:21:48;;;;;;;0.68;0.68;;;9.70;65.70;;;4.08;100.00;94827.53;5337499;26;20377;-53
2024/04/17 08:24:15;;;;;;;1.67;0.70;;;9.50;65.80;;;4.12;100.00;94832.06;5337322;26;20071;-48
2024/04/17 08:26:41;;;;;;;0.68;0.60;;;9.50;66.00;;;4.11;100.00;94833.13;5335972;26;20015;-51
2024/04/17 08:29:07;;;;;;;0.60;0.60;;;9.40;66.20;;;4.11;100.00;94845.50;5337884;26;20005;-49
2024/04/17 08:31:33;;;;;;;0.70;0.70;;;9.40;67.10;;;4.04;100.00;94842.22;5336478;26;20025;-53
2024/04/17 08:33:59;;;;;;;0.57;0.52;;;9.40;66.30;;;4.00;100.00;94836.63;5337917;26;20019;-49
2024/04/17 08:36:25;;;;;;;3.05;2.85;;;9.40;66.40;;;3.93;100.00;94847.34;5337133;26;20008;-51
2024/04/17 08:38:55;;;;;;;2.97;2.78;;;9.30;66.40;;;3.97;100.00;94852.91;5332021;26;20471;-52
2024/04/17 08:41:28;;;;;;;1.13;0.80;;;9.30;66.50;;;3.99;100.00;94836.88;5334868;26;20116;-53
2024/04/17 08:44:01;;;;;;;0.93;0.88;;;9.40;66.70;;;3.92;100.00;94850.22;5336534;26;20041;-50
2024/04/17 08:46:33;;;;;;;1.30;0.90;;;9.40;66.70;;;4.04;100.00;94843.03;5316048;26;20020;-51
2024/04/17 08:49:02;;;;;;;4.55;2.05;;;9.40;66.80;;;4.23;100.00;94848.03;5338688;26;20004;-49
2024/04/17 08:51:29;;;;;;;1.77;1.00;;;9.40;66.80;;;4.22;100.00;94846.44;5340066;26;20417;-54
2024/04/17 08:54:00;;;;;;;2.22;1.08;;;9.50;66.90;;;4.34;100.00;94847.94;5337474;26;20490;-53
2024/04/17 08:56:29;;;;;;;1.05;0.90;;;9.60;67.00;;;4.40;100.00;94848.81;5305844;26;20012;-49
2024/04/17 08:58:56;;;;;;;1.02;0.93;;;9.70;67.00;;;4.36;100.00;94850.34;5337333;26;20020;-54
2024/04/17 09:01:32;;;;;;;38.88;32.05;;;9.80;67.00;;;4.48;100.00;94847.56;5336520;26;20012;-50
2024/04/17 09:04:01;;;;;;;11.90;10.77;;;9.80;67.70;;;4.49;100.00;94857.09;5335946;26;20018;-53
2024/04/17 09:06:29;;;;;;;2.22;1.98;;;9.90;66.80;;;4.39;100.00;94855.13;5372418;26;20015;-54
2024/04/17 09:08:56;;;;;;;1.45;1.10;;;10.00;66.50;;;4.43;100.00;94856.22;5371130;26;20486;-52
2024/04/17 09:11:23;;;;;;;0.70;0.63;;;10.00;66.40;;;4.57;100.00;94867.22;5372683;26;20019;-52
2024/04/17 09:13:49;;;;;;;1.23;0.95;;;10.20;66.40;;;4.50;100.00;94864.75;5348579;26;20003;-52
2024/04/17 09:16:15;;;;;;;3.13;0.73;;;10.30;66.10;;;4.68;100.00;94860.25;5372638;26;20022;-50
2024/04/17 09:18:41;;;;;;;0.60;0.50;;;10.40;65.90;;;4.74;100.00;94867.97;5371852;26;20008;-49
2024/04/17 09:21:10;;;;;;;1.30;0.60;;;10.50;65.80;;;4.66;100.00;94865.75;5372830;26;20526;-50
2024/04/17 09:23:36;;;;;;;2.65;0.60;;;10.60;65.60;;;4.60;100.00;94864.09;5373269;26;20015;-51
2024/04/17 09:26:17;;;;;;;4.03;0.50;;;10.60;65.20;;;4.61;100.00;94860.44;5371803;26;20008;-53
2024/04/17 09:28:43;;;;;;;0.70;0.60;;;10.60;65.20;;;4.56;100.00;94866.41;5372209;26;20008;-50
2024/04/17 09:31:11;;;;;;;0.70;0.63;;;10.70;64.80;;;4.61;100.00;94869.13;5371295;26;20947;-54
2024/04/17 09:33:45;;;;;;;0.90;0.77;;;10.80;64.70;;;4.67;100.00;94864.72;5370736;26;20000;-53
2024/04/17 09:36:12;;;;;;;1.98;1.65;;;10.80;64.70;;;4.71;100.00;94863.19;5373400;26;20011;-54
2024/04/17 09:38:39;;;;;;;1.95;1.55;;;10.80;64.50;;;4.73;100.00;94870.84;5372425;26;20073;-52
2024/04/17 09:41:05;;;;;;;0.90;0.80;;;10.90;64.40;;;4.74;100.00;94873.25;5372749;26;20025;-50
2024/04/17 09:43:32;;;;;;;0.63;0.63;;;10.90;64.10;;;4.60;100.00;94870.16;5375289;26;20008;-50
2024/04/17 09:46:06;;;;;;;1.75;1.65;;;10.90;63.80;;;4.80;100.00;94866.19;5372136;26;20026;-51
2024/04/17 09:48:38;;;;;;;0.57;0.57;;;10.80;64.00;;;4.60;100.00;94864.09;5373259;26;20460;-55
2024/04/17 09:51:10;;;;;;;0.85;0.70;;;10.70;64.00;;;4.60;100.00;94864.88;5368268;26;20051;-55
2024/04/17 09:53:55;;;;;;;;;;;10.60;64.20;;;4.66;100.00;94871.03;5373298;26;20054;-50
2024/04/17 09:56:23;;;;;;;3.08;0.90;;;10.50;64.10;;;4.69;100.00;94861.81;5345130;26;19925;-49
2024/04/17 09:58:50;;;;;;;1.10;1.00;;;10.30;64.40;;;4.50;100.00;94875.31;5352898;26;20079;-48
2024/04/17 10:01:19;;;;;;;1.02;0.75;;;10.30;64.50;;;4.45;100.00;94869.97;5371199;26;20007;-51
2024/04/17 10:03:48;;;;;;;1.52;1.00;;;10.20;64.60;;;4.48;100.00;94876.59;5372684;26;20012;-51
2024/04/17 10:06:16;;;;;;;3.70;1.00;;;10.20;64.80;;;4.53;100.00;94876.66;5339745;26;20016;-46
2024/04/17 10:08:44;;;;;;;0.80;0.80;;;10.20;65.00;;;4.29;100.00;94881.31;5350122;26;20019;-51
2024/04/17 10:11:11;;;;;;;0.75;0.75;;;10.20;64.90;;;4.39;100.00;94871.75;5379945;26;20032;-51
2024/04/17 10:13:38;;;;;;;1.92;0.80;;;10.20;64.70;;;4.52;100.00;94881.13;5372976;26;20030;-51
2024/04/17 10:16:05;;;;;;;2.22;0.75;;;10.20;64.90;;;4.38;100.00;94878.03;5372829;26;20473;-51
2024/04/17 10:18:30;;;;;;;3.10;0.95;;;10.20;64.90;;;4.53;100.00;94885.38;5372450;26;20024;-50
2024/04/17 10:20:56;;;;;;;1.25;0.77;;;10.30;64.90;;;4.37;100.00;94875.66;5371508;26;20080;-51
2024/04/17 10:23:28;;;;;;;1.10;1.00;;;10.40;64.60;;;4.49;100.00;94881.63;5372770;26;20430;-51